createdAt,value
2023-02-24T00:00:06.026Z,8.17
2023-02-24T00:01:05.948Z,8.15
2023-02-24T00:02:06.340Z,8.11
2023-02-24T00:03:05.995Z,8.17
2023-02-24T00:04:05.694Z,8.15
2023-02-24T00:05:05.619Z,8.17
2023-02-24T00:06:05.531Z,8.12
2023-02-24T00:07:05.449Z,8.15
2023-02-24T00:08:05.367Z,8.17
2023-02-24T00:09:05.288Z,8.17
2023-02-24T00:10:05.206Z,8.15
2023-02-24T00:11:05.119Z,8.14
2023-02-24T00:12:05.040Z,8.09
2023-02-24T00:13:04.958Z,8.17
2023-02-24T00:14:04.870Z,8.15
2023-02-24T00:15:04.789Z,8.21
2023-02-24T00:16:04.750Z,8.33
2023-02-24T00:17:04.724Z,8.24
2023-02-24T00:18:04.566Z,8.25
2023-02-24T00:19:04.461Z,8.21
2023-02-24T00:20:04.380Z,8.24
2023-02-24T00:21:04.301Z,8.29
2023-02-24T00:22:04.226Z,8.27
2023-02-24T00:23:04.131Z,8.18
2023-02-24T00:24:04.050Z,8.17
2023-02-24T00:25:03.995Z,8.22
2023-02-24T00:26:03.886Z,8.22
2023-02-24T00:27:03.805Z,8.27
2023-02-24T00:28:03.724Z,8.25
2023-02-24T00:29:03.643Z,8.21
2023-02-24T00:30:03.562Z,8.17
2023-02-24T00:31:03.627Z,8.22
2023-02-24T00:32:03.532Z,8.24
2023-02-24T00:33:03.493Z,8.29
2023-02-24T00:34:03.246Z,8.29
2023-02-24T00:35:03.170Z,8.30
2023-02-24T00:36:03.079Z,8.21
2023-02-24T00:37:02.999Z,8.29
2023-02-24T00:38:02.909Z,8.25
2023-02-24T00:39:02.839Z,8.29
2023-02-24T00:40:02.744Z,8.25
2023-02-24T00:41:02.673Z,8.25
2023-02-24T00:42:02.584Z,8.27
2023-02-24T00:43:02.504Z,8.32
2023-02-24T00:44:02.421Z,8.27
2023-02-24T00:45:02.344Z,8.36
2023-02-24T00:46:02.280Z,8.25
2023-02-24T00:47:02.178Z,8.30
2023-02-24T00:48:02.095Z,8.36
2023-02-24T00:49:02.016Z,8.36
2023-02-24T00:50:01.942Z,8.39
2023-02-24T00:51:01.851Z,8.36
2023-02-24T00:52:01.767Z,8.39
2023-02-24T00:53:01.699Z,8.43
2023-02-24T00:54:01.609Z,8.36
2023-02-24T00:55:01.521Z,8.36
2023-02-24T00:56:01.439Z,8.36
2023-02-24T00:57:01.373Z,8.40
2023-02-24T00:58:01.278Z,8.44
2023-02-24T00:59:01.212Z,8.36
2023-02-24T01:00:01.134Z,8.36
2023-02-24T01:01:01.033Z,8.36
2023-02-24T01:02:01.004Z,8.36
2023-02-24T01:03:00.869Z,8.40
2023-02-24T01:04:00.814Z,8.43
2023-02-24T01:05:00.715Z,8.27
2023-02-24T01:06:00.628Z,8.32
2023-02-24T01:07:00.755Z,8.32
2023-02-24T01:08:00.454Z,8.30
2023-02-24T01:09:00.373Z,8.30
2023-02-24T01:10:00.294Z,8.34
2023-02-24T01:11:00.209Z,8.36
2023-02-24T01:12:00.235Z,8.34
2023-02-24T01:13:00.053Z,8.30
2023-02-24T01:13:59.972Z,8.40
2023-02-24T01:14:59.880Z,8.39
2023-02-24T01:15:59.814Z,8.33
2023-02-24T01:16:59.723Z,8.39
2023-02-24T01:17:59.635Z,8.39
2023-02-24T01:18:59.555Z,8.37
2023-02-24T01:19:59.471Z,8.36
2023-02-24T01:20:59.397Z,8.33
2023-02-24T01:21:59.323Z,8.40
2023-02-24T01:22:59.231Z,8.34
2023-02-24T01:23:59.158Z,8.36
2023-02-24T01:24:59.070Z,8.40
2023-02-24T01:25:58.983Z,8.36
2023-02-24T01:26:58.902Z,8.43
2023-02-24T01:27:58.819Z,8.39
2023-02-24T01:28:58.756Z,8.39
2023-02-24T01:29:58.653Z,8.47
2023-02-24T01:30:58.688Z,8.44
2023-02-24T01:31:58.754Z,8.47
2023-02-24T01:32:58.550Z,8.40
2023-02-24T01:33:58.324Z,8.43
2023-02-24T01:34:58.245Z,8.47
2023-02-24T01:35:58.164Z,8.52
2023-02-24T01:36:58.089Z,8.47
2023-02-24T01:37:58.005Z,8.37
2023-02-24T01:38:57.921Z,8.50
2023-02-24T01:39:57.836Z,8.42
2023-02-24T01:40:57.757Z,8.43
2023-02-24T01:41:57.672Z,8.40
2023-02-24T01:42:57.608Z,8.34
2023-02-24T01:43:57.510Z,8.43
2023-02-24T01:44:57.430Z,8.40
2023-02-24T01:45:57.344Z,8.43
2023-02-24T01:46:57.306Z,8.39
2023-02-24T01:47:57.208Z,8.44
2023-02-24T01:48:57.104Z,8.36
2023-02-24T01:49:57.027Z,8.43
2023-02-24T01:50:56.938Z,8.34
2023-02-24T01:51:56.856Z,8.39
2023-02-24T01:52:56.778Z,8.40
2023-02-24T01:53:56.692Z,8.39
2023-02-24T01:54:56.612Z,8.37
2023-02-24T01:55:56.569Z,8.32
2023-02-24T01:56:56.452Z,8.39
2023-02-24T01:57:56.370Z,8.40
2023-02-24T01:58:56.284Z,8.34
2023-02-24T01:59:56.206Z,8.39
2023-02-24T02:00:56.122Z,8.39
2023-02-24T02:01:56.092Z,8.37
2023-02-24T02:02:55.996Z,8.34
2023-02-24T02:03:55.882Z,8.40
2023-02-24T02:04:55.794Z,8.24
2023-02-24T02:05:55.713Z,8.27
2023-02-24T02:06:55.629Z,8.33
2023-02-24T02:07:55.568Z,8.12
2023-02-24T02:08:55.470Z,8.24
2023-02-24T02:09:55.392Z,8.25
2023-02-24T02:10:55.303Z,8.22
2023-02-24T02:11:55.219Z,8.22
2023-02-24T02:12:55.147Z,8.21
2023-02-24T02:13:55.134Z,8.17
2023-02-24T02:14:54.982Z,8.18
2023-02-24T02:15:54.909Z,8.21
2023-02-24T02:16:54.810Z,8.25
2023-02-24T02:17:54.741Z,8.30
2023-02-24T02:18:54.646Z,8.30
2023-02-24T02:19:54.564Z,8.32
2023-02-24T02:20:54.482Z,8.25
2023-02-24T02:21:54.401Z,8.33
2023-02-24T02:22:54.318Z,8.30
2023-02-24T02:23:54.270Z,8.33
2023-02-24T02:24:54.166Z,8.30
2023-02-24T02:25:54.072Z,8.30
2023-02-24T02:26:54.008Z,8.32
2023-02-24T02:27:53.914Z,8.29
2023-02-24T02:28:53.836Z,8.33
2023-02-24T02:29:53.750Z,8.27
2023-02-24T02:30:53.688Z,8.21
2023-02-24T02:31:53.646Z,8.30
2023-02-24T02:32:53.649Z,8.19
2023-02-24T02:33:53.416Z,8.27
2023-02-24T02:34:53.336Z,8.34
2023-02-24T02:35:53.252Z,8.32
2023-02-24T02:36:53.171Z,8.30
2023-02-24T02:37:53.088Z,8.25
2023-02-24T02:38:53.010Z,8.21
2023-02-24T02:39:52.928Z,8.29
2023-02-24T02:40:52.857Z,8.27
2023-02-24T02:41:52.763Z,8.25
2023-02-24T02:42:52.680Z,8.27
2023-02-24T02:43:52.647Z,8.36
2023-02-24T02:44:52.513Z,8.36
2023-02-24T02:45:52.495Z,8.36
2023-02-24T02:46:52.353Z,8.52
2023-02-24T02:47:52.264Z,8.52
2023-02-24T02:48:52.187Z,8.40
2023-02-24T02:49:52.104Z,8.50
2023-02-24T02:50:52.021Z,8.48
2023-02-24T02:51:52.093Z,8.50
2023-02-24T02:52:51.857Z,8.44
2023-02-24T02:53:51.778Z,8.51
2023-02-24T02:54:51.693Z,8.54
2023-02-24T02:55:51.606Z,8.43
2023-02-24T02:56:51.530Z,8.44
2023-02-24T02:57:51.445Z,8.50
2023-02-24T02:58:51.362Z,8.47
2023-02-24T02:59:51.281Z,8.43
2023-02-24T03:00:51.267Z,8.44
2023-02-24T03:01:51.117Z,8.52
2023-02-24T03:02:51.046Z,8.48
2023-02-24T03:03:50.949Z,8.48
2023-02-24T03:04:50.950Z,8.52
2023-02-24T03:05:50.812Z,8.52
2023-02-24T03:06:50.710Z,8.52
2023-02-24T03:07:50.625Z,8.54
2023-02-24T03:08:50.544Z,8.52
2023-02-24T03:09:50.473Z,8.52
2023-02-24T03:10:50.387Z,8.50
2023-02-24T03:11:50.293Z,8.58
2023-02-24T03:12:50.218Z,8.55
2023-02-24T03:13:50.130Z,8.58
2023-02-24T03:14:50.048Z,8.60
2023-02-24T03:15:49.972Z,8.58
2023-02-24T03:16:49.968Z,8.58
2023-02-24T03:17:49.807Z,8.60
2023-02-24T03:18:49.722Z,8.54
2023-02-24T03:19:49.645Z,8.60
2023-02-24T03:20:49.560Z,8.61
2023-02-24T03:21:49.477Z,8.58
2023-02-24T03:22:49.394Z,8.60
2023-02-24T03:23:49.309Z,8.61
2023-02-24T03:24:49.231Z,8.58
2023-02-24T03:25:49.152Z,8.62
2023-02-24T03:26:49.068Z,8.62
2023-02-24T03:27:48.992Z,8.61
2023-02-24T03:28:48.907Z,8.66
2023-02-24T03:29:48.855Z,8.69
2023-02-24T03:30:48.773Z,8.60
2023-02-24T03:31:48.742Z,8.68
2023-02-24T03:32:48.653Z,8.68
2023-02-24T03:33:48.497Z,8.57
2023-02-24T03:34:48.417Z,8.60
2023-02-24T03:35:48.342Z,8.54
2023-02-24T03:36:48.253Z,8.50
2023-02-24T03:37:48.166Z,8.55
2023-02-24T03:38:48.086Z,8.51
2023-02-24T03:39:48.003Z,8.48
2023-02-24T03:40:47.926Z,8.47
2023-02-24T03:41:47.841Z,8.44
2023-02-24T03:42:47.757Z,8.54
2023-02-24T03:43:47.701Z,8.50
2023-02-24T03:44:47.596Z,8.48
2023-02-24T03:45:47.571Z,8.44
2023-02-24T03:46:47.432Z,8.50
2023-02-24T03:47:47.380Z,8.50
2023-02-24T03:48:47.270Z,8.47
2023-02-24T03:49:47.185Z,8.39
2023-02-24T03:50:47.107Z,8.48
2023-02-24T03:51:47.020Z,8.44
2023-02-24T03:52:46.944Z,8.39
2023-02-24T03:53:46.854Z,8.39
2023-02-24T03:54:46.784Z,8.33
2023-02-24T03:55:46.692Z,8.37
2023-02-24T03:56:46.613Z,8.36
2023-02-24T03:57:46.531Z,8.37
2023-02-24T03:58:46.452Z,8.22
2023-02-24T03:59:46.366Z,8.29
2023-02-24T04:00:46.286Z,8.30
2023-02-24T04:01:46.206Z,8.19
2023-02-24T04:02:46.142Z,8.24
2023-02-24T04:03:46.046Z,8.19
2023-02-24T04:04:46.023Z,8.17
2023-02-24T04:05:45.873Z,8.24
2023-02-24T04:06:45.790Z,8.17
2023-02-24T04:07:45.715Z,8.22
2023-02-24T04:08:45.627Z,8.19
2023-02-24T04:09:45.549Z,8.14
2023-02-24T04:10:45.464Z,8.17
2023-02-24T04:11:45.385Z,8.25
2023-02-24T04:12:45.365Z,8.19
2023-02-24T04:13:45.219Z,8.32
2023-02-24T04:14:45.148Z,8.22
2023-02-24T04:15:45.069Z,8.29
2023-02-24T04:16:44.981Z,8.24
2023-02-24T04:17:44.894Z,8.32
2023-02-24T04:18:44.824Z,8.27
2023-02-24T04:19:44.727Z,8.32
2023-02-24T04:20:44.659Z,8.36
2023-02-24T04:21:44.563Z,8.39
2023-02-24T04:22:44.488Z,8.36
2023-02-24T04:23:44.400Z,8.42
2023-02-24T04:24:44.317Z,8.39
2023-02-24T04:25:44.234Z,8.37
2023-02-24T04:26:44.152Z,8.40
2023-02-24T04:27:44.085Z,8.39
2023-02-24T04:28:44.012Z,8.39
2023-02-24T04:29:43.906Z,8.37
2023-02-24T04:30:43.935Z,8.43
2023-02-24T04:31:43.971Z,8.37
2023-02-24T04:32:43.717Z,8.39
2023-02-24T04:33:43.578Z,8.24
2023-02-24T04:34:43.496Z,8.32
2023-02-24T04:35:43.422Z,8.32
2023-02-24T04:36:43.334Z,8.37
2023-02-24T04:37:43.254Z,8.36
2023-02-24T04:38:43.176Z,8.30
2023-02-24T04:39:43.098Z,8.30
2023-02-24T04:40:43.009Z,8.37
2023-02-24T04:41:42.928Z,8.42
2023-02-24T04:42:42.850Z,8.39
2023-02-24T04:43:42.760Z,8.27
2023-02-24T04:44:42.681Z,8.27
2023-02-24T04:45:42.601Z,8.27
2023-02-24T04:46:42.567Z,8.36
2023-02-24T04:47:42.432Z,8.36
2023-02-24T04:48:42.354Z,8.25
2023-02-24T04:49:42.268Z,8.27
2023-02-24T04:50:42.316Z,8.37
2023-02-24T04:51:42.103Z,8.30
2023-02-24T04:52:42.031Z,8.36
2023-02-24T04:53:41.939Z,8.29
2023-02-24T04:54:41.858Z,8.36
2023-02-24T04:55:41.774Z,8.27
2023-02-24T04:56:41.697Z,8.33
2023-02-24T04:57:41.631Z,8.30
2023-02-24T04:58:41.561Z,8.29
2023-02-24T04:59:41.457Z,8.27
2023-02-24T05:00:41.451Z,8.30
2023-02-24T05:01:41.286Z,8.40
2023-02-24T05:02:41.203Z,8.32
2023-02-24T05:03:41.172Z,8.32
2023-02-24T05:04:41.156Z,8.32
2023-02-24T05:05:40.962Z,8.32
2023-02-24T05:06:40.891Z,8.27
2023-02-24T05:07:40.792Z,8.27
2023-02-24T05:08:40.724Z,8.32
2023-02-24T05:09:40.657Z,8.19
2023-02-24T05:10:40.550Z,8.17
2023-02-24T05:11:40.469Z,8.27
2023-02-24T05:12:40.388Z,8.27
2023-02-24T05:13:40.425Z,8.29
2023-02-24T05:14:40.221Z,8.18
2023-02-24T05:15:40.138Z,8.25
2023-02-24T05:16:40.114Z,8.19
2023-02-24T05:17:39.979Z,8.15
2023-02-24T05:18:39.893Z,8.29
2023-02-24T05:19:39.814Z,8.27
2023-02-24T05:20:39.749Z,8.25
2023-02-24T05:21:39.655Z,8.27
2023-02-24T05:22:39.568Z,8.27
2023-02-24T05:23:39.487Z,8.24
2023-02-24T05:24:39.406Z,8.27
2023-02-24T05:25:39.321Z,8.21
2023-02-24T05:26:39.248Z,8.27
2023-02-24T05:27:39.154Z,8.24
2023-02-24T05:28:39.073Z,8.22
2023-02-24T05:29:38.996Z,8.15
2023-02-24T05:30:38.925Z,8.17
2023-02-24T05:31:38.992Z,8.14
2023-02-24T05:32:38.823Z,8.11
2023-02-24T05:33:38.705Z,8.12
2023-02-24T05:34:38.582Z,8.11
2023-02-24T05:35:38.499Z,8.14
2023-02-24T05:36:38.420Z,8.18
2023-02-24T05:37:38.336Z,8.07
2023-02-24T05:38:38.567Z,8.06
2023-02-24T05:39:38.189Z,8.11
2023-02-24T05:40:38.087Z,8.17
2023-02-24T05:41:38.002Z,8.12
2023-02-24T05:42:37.926Z,8.11
2023-02-24T05:43:37.839Z,8.19
2023-02-24T05:44:37.759Z,8.12
2023-02-24T05:45:37.674Z,8.15
2023-02-24T05:46:37.627Z,8.15
2023-02-24T05:47:37.512Z,8.09
2023-02-24T05:48:37.433Z,8.11
2023-02-24T05:49:37.348Z,8.18
2023-02-24T05:50:37.270Z,8.11
2023-02-24T05:51:37.182Z,8.09
2023-02-24T05:52:37.121Z,8.12
2023-02-24T05:53:37.023Z,8.09
2023-02-24T05:54:36.946Z,8.15
2023-02-24T05:55:36.856Z,8.04
2023-02-24T05:56:36.778Z,8.11
2023-02-24T05:57:36.690Z,8.15
2023-02-24T05:58:36.611Z,8.14
2023-02-24T05:59:36.528Z,8.12
2023-02-24T06:00:36.443Z,7.99
2023-02-24T06:01:36.386Z,8.09
2023-02-24T06:02:36.279Z,8.14
2023-02-24T06:03:36.198Z,8.21
2023-02-24T06:04:36.116Z,8.15
2023-02-24T06:05:36.033Z,8.14
2023-02-24T06:06:35.956Z,8.22
2023-02-24T06:07:35.869Z,8.14
2023-02-24T06:08:35.787Z,8.17
2023-02-24T06:09:35.707Z,8.15
2023-02-24T06:10:35.623Z,8.14
2023-02-24T06:11:35.576Z,8.15
2023-02-24T06:12:35.460Z,8.01
2023-02-24T06:13:35.374Z,8.04
2023-02-24T06:14:35.292Z,8.09
2023-02-24T06:15:35.211Z,8.04
2023-02-24T06:16:35.171Z,8.07
2023-02-24T06:17:35.044Z,8.04
2023-02-24T06:18:34.966Z,8.09
2023-02-24T06:19:34.886Z,8.06
2023-02-24T06:20:34.802Z,8.12
2023-02-24T06:21:34.717Z,8.07
2023-02-24T06:22:34.636Z,8.12
2023-02-24T06:23:34.622Z,8.12
2023-02-24T06:24:34.475Z,8.06
2023-02-24T06:25:34.389Z,8.15
2023-02-24T06:26:34.305Z,8.04
2023-02-24T06:27:34.226Z,8.18
2023-02-24T06:28:34.150Z,8.12
2023-02-24T06:29:34.065Z,8.12
2023-02-24T06:30:34.022Z,8.14
2023-02-24T06:31:33.929Z,8.04
2023-02-24T06:32:33.903Z,8.14
2023-02-24T06:33:33.746Z,8.11
2023-02-24T06:34:33.665Z,8.09
2023-02-24T06:35:33.569Z,8.11
2023-02-24T06:36:33.489Z,8.11
2023-02-24T06:37:33.407Z,8.12
2023-02-24T06:38:33.325Z,8.15
2023-02-24T06:39:36.176Z,8.12
2023-02-24T06:40:33.166Z,8.12
2023-02-24T06:41:33.082Z,8.12
2023-02-24T06:42:32.998Z,8.17
2023-02-24T06:43:32.915Z,8.12
2023-02-24T06:44:32.850Z,8.17
2023-02-24T06:45:32.766Z,8.17
2023-02-24T06:46:32.669Z,8.18
2023-02-24T06:47:32.596Z,8.15
2023-02-24T06:48:32.506Z,8.15
2023-02-24T06:49:32.422Z,8.21
2023-02-24T06:50:32.339Z,8.18
2023-02-24T06:51:32.267Z,8.15
2023-02-24T06:52:32.182Z,8.12
2023-02-24T06:53:32.111Z,8.17
2023-02-24T06:54:32.017Z,8.15
2023-02-24T06:55:31.929Z,8.09
2023-02-24T06:56:32.609Z,8.19
2023-02-24T06:57:31.767Z,8.09
2023-02-24T06:58:31.687Z,8.12
2023-02-24T06:59:31.602Z,8.15
2023-02-24T07:00:31.521Z,8.19
2023-02-24T07:01:31.471Z,8.18
2023-02-24T07:02:31.363Z,8.12
2023-02-24T07:03:31.272Z,8.17
2023-02-24T07:04:31.230Z,8.18
2023-02-24T07:05:31.110Z,8.19
2023-02-24T07:06:31.030Z,8.14
2023-02-24T07:07:30.942Z,8.17
2023-02-24T07:08:30.864Z,8.12
2023-02-24T07:09:30.818Z,8.14
2023-02-24T07:10:30.698Z,8.17
2023-02-24T07:11:30.617Z,8.12
2023-02-24T07:12:30.538Z,8.15
2023-02-24T07:13:30.452Z,8.17
2023-02-24T07:14:30.384Z,8.12
2023-02-24T07:15:30.288Z,8.12
2023-02-24T07:16:30.244Z,8.09
2023-02-24T07:17:30.122Z,8.18
2023-02-24T07:18:30.049Z,8.14
2023-02-24T07:19:29.971Z,8.12
2023-02-24T07:20:29.894Z,8.18
2023-02-24T07:21:29.796Z,8.19
2023-02-24T07:22:29.713Z,8.14
2023-02-24T07:23:29.636Z,8.14
2023-02-24T07:24:29.550Z,8.18
2023-02-24T07:25:29.469Z,8.22
2023-02-24T07:26:29.384Z,8.22
2023-02-24T07:27:29.328Z,8.18
2023-02-24T07:28:29.249Z,8.19
2023-02-24T07:29:29.143Z,8.24
2023-02-24T07:30:29.126Z,8.25
2023-02-24T07:31:29.076Z,8.25
2023-02-24T07:32:28.931Z,8.17
2023-02-24T07:33:28.815Z,8.15
2023-02-24T07:34:28.728Z,8.30
2023-02-24T07:35:28.645Z,8.25
2023-02-24T07:36:28.567Z,8.24
2023-02-24T07:37:28.482Z,8.29
2023-02-24T07:38:28.398Z,8.18
2023-02-24T07:39:28.316Z,8.29
2023-02-24T07:40:28.237Z,8.27
2023-02-24T07:41:29.921Z,8.21
2023-02-24T07:42:28.070Z,8.32
2023-02-24T07:43:27.987Z,8.36
2023-02-24T07:44:27.914Z,8.34
2023-02-24T07:45:27.864Z,8.39
2023-02-24T07:46:27.943Z,8.37
2023-02-24T07:47:27.657Z,8.34
2023-02-24T07:48:27.577Z,8.37
2023-02-24T07:49:27.493Z,8.32
2023-02-24T07:50:27.412Z,8.42
2023-02-24T07:51:27.328Z,8.25
2023-02-24T07:52:27.247Z,8.36
2023-02-24T07:53:27.163Z,8.42
2023-02-24T07:54:27.085Z,8.44
2023-02-24T07:55:27.006Z,8.54
2023-02-24T07:56:26.963Z,8.50
2023-02-24T07:57:26.838Z,8.54
2023-02-24T07:58:26.754Z,8.52
2023-02-24T07:59:26.670Z,8.48
2023-02-24T08:00:26.594Z,8.50
2023-02-24T08:01:26.513Z,8.57
2023-02-24T08:02:26.463Z,8.51
2023-02-24T08:03:26.343Z,8.55
2023-02-24T08:04:26.263Z,8.51
2023-02-24T08:05:26.245Z,8.55
2023-02-24T08:06:26.096Z,8.54
2023-02-24T08:07:26.018Z,8.65
2023-02-24T08:08:25.932Z,8.65
2023-02-24T08:09:25.856Z,8.66
2023-02-24T08:10:25.772Z,8.60
2023-02-24T08:11:25.689Z,8.68
2023-02-24T08:12:25.605Z,8.66
2023-02-24T08:13:25.536Z,8.68
2023-02-24T08:14:25.445Z,8.60
2023-02-24T08:15:25.365Z,8.60
2023-02-24T08:16:25.279Z,8.60
2023-02-24T08:17:25.198Z,8.66
2023-02-24T08:18:25.119Z,8.68
2023-02-24T08:19:25.043Z,8.65
2023-02-24T08:20:24.970Z,8.75
2023-02-24T08:21:24.873Z,8.61
2023-02-24T08:22:24.792Z,8.69
2023-02-24T08:23:24.705Z,8.60
2023-02-24T08:24:25.446Z,8.60
2023-02-24T08:25:24.553Z,8.66
2023-02-24T08:26:24.488Z,8.66
2023-02-24T08:27:24.378Z,8.65
2023-02-24T08:28:24.303Z,8.77
2023-02-24T08:29:24.214Z,8.75
2023-02-24T08:30:24.167Z,8.72
2023-02-24T08:31:24.608Z,8.73
2023-02-24T08:32:24.120Z,8.84
2023-02-24T08:33:23.895Z,8.69
2023-02-24T08:34:23.816Z,8.75
2023-02-24T08:35:23.722Z,8.77
2023-02-24T08:36:23.640Z,8.82
2023-02-24T08:37:23.562Z,8.79
2023-02-24T08:38:26.042Z,8.85
2023-02-24T08:39:23.399Z,8.79
2023-02-24T08:40:23.314Z,8.79
2023-02-24T08:41:23.589Z,8.76
2023-02-24T08:42:23.156Z,8.80
2023-02-24T08:43:23.068Z,8.80
2023-02-24T08:44:23.017Z,8.84
2023-02-24T08:45:22.905Z,8.80
2023-02-24T08:46:22.853Z,8.85
2023-02-24T08:47:22.744Z,8.90
2023-02-24T08:48:22.661Z,8.88
2023-02-24T08:49:22.581Z,8.87
2023-02-24T08:50:22.506Z,8.88
2023-02-24T08:51:23.378Z,8.98
2023-02-24T08:52:22.344Z,8.91
2023-02-24T08:53:22.256Z,8.93
2023-02-24T08:54:22.174Z,8.94
2023-02-24T08:55:22.097Z,8.95
2023-02-24T08:56:22.400Z,9.03
2023-02-24T08:57:21.929Z,8.93
2023-02-24T08:58:21.870Z,8.97
2023-02-24T08:59:21.764Z,9.00
2023-02-24T09:00:21.682Z,9.09
2023-02-24T09:01:21.951Z,8.98
2023-02-24T09:02:21.524Z,9.02
2023-02-24T09:03:21.437Z,9.06
2023-02-24T09:04:21.442Z,9.06
2023-02-24T09:05:21.277Z,9.06
2023-02-24T09:06:21.206Z,9.10
2023-02-24T09:07:21.123Z,9.12
2023-02-24T09:08:21.029Z,9.05
2023-02-24T09:09:20.967Z,9.06
2023-02-24T09:10:20.867Z,9.10
2023-02-24T09:11:21.165Z,9.12
2023-02-24T09:12:20.711Z,9.17
2023-02-24T09:13:20.628Z,9.10
2023-02-24T09:14:27.401Z,9.13
2023-02-24T09:15:20.464Z,9.22
2023-02-24T09:16:20.417Z,9.20
2023-02-24T09:17:20.297Z,9.19
2023-02-24T09:18:20.232Z,9.22
2023-02-24T09:19:20.155Z,9.27
2023-02-24T09:20:20.056Z,9.28
2023-02-24T09:21:20.186Z,9.28
2023-02-24T09:22:21.412Z,9.24
2023-02-24T09:23:19.832Z,9.28
2023-02-24T09:24:19.720Z,9.17
2023-02-24T09:25:19.640Z,9.12
2023-02-24T09:26:19.559Z,9.12
2023-02-24T09:27:19.477Z,9.31
2023-02-24T09:28:19.495Z,9.24
2023-02-24T09:29:19.326Z,9.10
2023-02-24T09:30:19.234Z,9.14
2023-02-24T09:31:19.432Z,9.28
2023-02-24T09:32:19.236Z,9.16
2023-02-24T09:33:18.988Z,9.12
2023-02-24T09:34:18.950Z,9.19
2023-02-24T09:35:18.825Z,9.22
2023-02-24T09:36:18.753Z,9.27
2023-02-24T09:37:18.659Z,9.29
2023-02-24T09:38:18.579Z,9.28
2023-02-24T09:39:18.495Z,9.32
2023-02-24T09:40:18.413Z,9.35
2023-02-24T09:41:19.219Z,9.34
2023-02-24T09:42:18.250Z,9.38
2023-02-24T09:43:18.170Z,9.37
2023-02-24T09:44:18.096Z,9.38
2023-02-24T09:45:18.008Z,9.37
2023-02-24T09:46:18.091Z,9.35
2023-02-24T09:47:17.842Z,9.40
2023-02-24T09:48:17.812Z,9.35
2023-02-24T09:49:17.726Z,9.38
2023-02-24T09:50:32.985Z,9.37
2023-02-24T09:51:17.533Z,9.34
2023-02-24T09:52:17.589Z,9.38
2023-02-24T09:53:17.794Z,9.40
2023-02-24T09:54:17.287Z,9.40
2023-02-24T09:55:17.195Z,9.38
2023-02-24T09:56:17.110Z,9.35
2023-02-24T09:57:17.145Z,9.35
2023-02-24T09:58:16.976Z,9.49
2023-02-24T09:59:16.894Z,9.40
2023-02-24T10:00:16.780Z,9.42
2023-02-24T10:01:16.759Z,9.42
2023-02-24T10:02:16.646Z,9.52
2023-02-24T10:03:16.545Z,9.50
2023-02-24T10:04:21.239Z,9.40
2023-02-24T10:05:16.376Z,9.56
2023-02-24T10:06:16.293Z,9.53
2023-02-24T10:07:16.213Z,9.56
2023-02-24T10:08:16.136Z,9.53
2023-02-24T10:09:16.051Z,9.56
2023-02-24T10:10:15.979Z,9.58
2023-02-24T10:11:15.888Z,9.50
2023-02-24T10:12:15.805Z,9.50
2023-02-24T10:13:15.729Z,9.60
2023-02-24T10:14:15.638Z,9.56
2023-02-24T10:15:15.567Z,9.55
2023-02-24T10:16:15.547Z,9.63
2023-02-24T10:17:15.415Z,9.70
2023-02-24T10:18:15.319Z,9.70
2023-02-24T10:19:15.529Z,9.70
2023-02-24T10:20:15.180Z,9.83
2023-02-24T10:21:15.169Z,9.82
2023-02-24T10:22:14.992Z,9.79
2023-02-24T10:23:14.916Z,9.85
2023-02-24T10:24:14.944Z,9.82
2023-02-24T10:25:21.083Z,9.80
2023-02-24T10:26:14.665Z,9.80
2023-02-24T10:27:17.555Z,9.88
2023-02-24T10:28:14.504Z,9.83
2023-02-24T10:29:14.423Z,9.83
2023-02-24T10:30:14.340Z,9.89
2023-02-24T10:31:14.366Z,9.79
2023-02-24T10:32:14.412Z,9.90
2023-02-24T10:33:14.179Z,9.93
2023-02-24T10:34:14.016Z,9.78
2023-02-24T10:35:13.934Z,9.80
2023-02-24T10:36:13.853Z,9.86
2023-02-24T10:37:26.195Z,9.90
2023-02-24T10:38:13.691Z,9.89
2023-02-24T10:39:13.609Z,9.96
2023-02-24T10:40:13.529Z,9.89
2023-02-24T10:41:13.447Z,9.90
2023-02-24T10:42:13.389Z,9.92
2023-02-24T10:43:13.283Z,9.92
2023-02-24T10:44:13.202Z,9.92
2023-02-24T10:45:17.152Z,9.93
2023-02-24T10:46:13.443Z,9.90
2023-02-24T10:47:12.960Z,9.90
2023-02-24T10:48:14.705Z,9.96
2023-02-24T10:49:12.797Z,9.92
2023-02-24T10:50:12.723Z,9.92
2023-02-24T10:51:12.636Z,9.92
2023-02-24T10:52:12.553Z,9.93
2023-02-24T10:53:12.472Z,9.86
2023-02-24T10:54:12.396Z,9.79
2023-02-24T10:55:12.315Z,9.79
2023-02-24T10:56:12.239Z,9.72
2023-02-24T10:57:12.153Z,9.88
2023-02-24T10:58:12.065Z,9.82
2023-02-24T10:59:12.009Z,9.79
2023-02-24T11:00:11.903Z,9.75
2023-02-24T11:01:11.903Z,9.85
2023-02-24T11:02:11.748Z,9.82
2023-02-24T11:03:12.969Z,9.89
2023-02-24T11:04:11.585Z,9.82
2023-02-24T11:05:11.500Z,9.88
2023-02-24T11:06:11.415Z,9.82
2023-02-24T11:07:11.334Z,9.80
2023-02-24T11:08:11.250Z,9.96
2023-02-24T11:09:11.174Z,9.88
2023-02-24T11:10:11.106Z,9.83
2023-02-24T11:11:11.017Z,9.75
2023-02-24T11:12:10.927Z,9.88
2023-02-24T11:13:10.844Z,9.82
2023-02-24T11:14:10.764Z,9.78
2023-02-24T11:15:10.681Z,9.83
2023-02-24T11:16:10.716Z,9.82
2023-02-24T11:17:10.580Z,9.88
2023-02-24T11:18:10.436Z,9.78
2023-02-24T11:19:10.356Z,9.79
2023-02-24T11:20:10.275Z,9.83
2023-02-24T11:21:10.191Z,9.83
2023-02-24T11:22:10.109Z,9.90
2023-02-24T11:23:10.061Z,9.89
2023-02-24T11:24:09.949Z,9.93
2023-02-24T11:25:09.865Z,9.90
2023-02-24T11:26:09.803Z,9.89
2023-02-24T11:27:09.704Z,10.04
2023-02-24T11:28:09.637Z,9.92
2023-02-24T11:29:09.541Z,10.00
2023-02-24T11:30:09.460Z,9.93
2023-02-24T11:31:09.499Z,9.98
2023-02-24T11:32:09.432Z,9.98
2023-02-24T11:33:09.227Z,9.92
2023-02-24T11:34:09.424Z,10.01
2023-02-24T11:35:09.463Z,10.06
2023-02-24T11:36:08.971Z,10.11
2023-02-24T11:37:08.892Z,10.01
2023-02-24T11:38:09.296Z,10.18
2023-02-24T11:39:19.561Z,10.11
2023-02-24T11:40:08.654Z,10.10
2023-02-24T11:41:08.581Z,10.22
2023-02-24T11:42:08.492Z,10.25
2023-02-24T11:43:08.490Z,10.26
2023-02-24T11:44:08.381Z,10.26
2023-02-24T11:45:08.242Z,10.34
2023-02-24T11:46:08.570Z,10.33
2023-02-24T11:47:08.080Z,10.34
2023-02-24T11:48:08.007Z,10.40
2023-02-24T11:49:07.918Z,10.34
2023-02-24T11:50:07.839Z,10.37
2023-02-24T11:51:07.775Z,10.34
2023-02-24T11:52:07.673Z,10.33
2023-02-24T11:53:07.594Z,10.22
2023-02-24T11:54:07.514Z,10.25
2023-02-24T11:55:07.442Z,10.25
2023-02-24T11:56:07.354Z,10.29
2023-02-24T11:57:07.278Z,10.25
2023-02-24T11:58:07.190Z,10.25
2023-02-24T11:59:07.126Z,10.23
2023-02-24T12:00:07.033Z,10.25
2023-02-24T12:01:06.945Z,10.29
2023-02-24T12:02:06.864Z,10.25
2023-02-24T12:03:06.857Z,10.26
2023-02-24T12:04:06.701Z,10.23
2023-02-24T12:05:06.626Z,10.23
2023-02-24T12:06:06.595Z,10.25
2023-02-24T12:07:06.894Z,10.31
2023-02-24T12:08:06.377Z,10.28
2023-02-24T12:09:06.301Z,10.23
2023-02-24T12:10:15.999Z,10.23
2023-02-24T12:11:06.139Z,10.34
2023-02-24T12:12:06.075Z,10.23
2023-02-24T12:13:05.975Z,10.25
2023-02-24T12:14:05.898Z,10.26
2023-02-24T12:15:05.840Z,10.29
2023-02-24T12:16:05.775Z,10.22
2023-02-24T12:17:05.651Z,10.23
2023-02-24T12:18:05.578Z,10.28
2023-02-24T12:19:05.490Z,10.18
2023-02-24T12:20:05.412Z,10.21
2023-02-24T12:21:05.328Z,10.23
2023-02-24T12:22:05.244Z,10.11
2023-02-24T12:23:05.163Z,10.16
2023-02-24T12:24:07.319Z,10.22
2023-02-24T12:25:05.017Z,10.11
2023-02-24T12:26:04.929Z,10.22
2023-02-24T12:27:04.838Z,10.29
2023-02-24T12:28:04.771Z,10.22
2023-02-24T12:29:04.675Z,10.26
2023-02-24T12:30:04.594Z,10.21
2023-02-24T12:31:04.665Z,10.31
2023-02-24T12:32:04.586Z,10.41
2023-02-24T12:33:04.394Z,10.53
2023-02-24T12:34:04.270Z,10.47
2023-02-24T12:35:04.188Z,10.49
2023-02-24T12:36:04.160Z,10.55
2023-02-24T12:37:04.024Z,10.58
2023-02-24T12:38:03.964Z,10.58
2023-02-24T12:39:03.863Z,10.56
2023-02-24T12:40:03.784Z,10.65
2023-02-24T12:41:03.709Z,10.60
2023-02-24T12:42:03.626Z,10.63
2023-02-24T12:43:03.540Z,10.65
2023-02-24T12:44:03.461Z,10.69
2023-02-24T12:45:03.378Z,10.71
2023-02-24T12:46:03.375Z,10.66
2023-02-24T12:47:03.213Z,10.69
2023-02-24T12:48:03.139Z,10.75
2023-02-24T12:49:03.072Z,10.66
2023-02-24T12:50:02.981Z,10.69
2023-02-24T12:51:02.897Z,10.67
2023-02-24T12:52:02.811Z,10.60
2023-02-24T12:53:02.729Z,10.67
2023-02-24T12:54:02.651Z,10.65
2023-02-24T12:55:02.569Z,10.65
2023-02-24T12:56:02.494Z,10.60
2023-02-24T12:57:02.406Z,10.51
2023-02-24T12:58:02.354Z,10.51
2023-02-24T12:59:02.341Z,10.63
2023-02-24T13:00:02.172Z,10.62
2023-02-24T13:01:02.134Z,10.59
2023-02-24T13:02:02.063Z,10.60
2023-02-24T13:03:01.950Z,10.65
2023-02-24T13:04:01.845Z,10.59
2023-02-24T13:05:01.765Z,10.71
2023-02-24T13:06:01.678Z,10.69
2023-02-24T13:07:01.596Z,10.75
2023-02-24T13:08:01.515Z,10.78
2023-02-24T13:09:01.440Z,10.92
2023-02-24T13:10:01.353Z,10.93
2023-02-24T13:11:01.276Z,10.84
2023-02-24T13:12:01.192Z,10.92
2023-02-24T13:13:01.124Z,10.87
2023-02-24T13:14:01.036Z,10.81